Bloomington, IN

1:18 AM EDT on July 23, 2017 (GMT -0400)
Johnson Turtle Field | | Change Station

Elev 686 ft 39.12 °N, 86.51 °W | Updated 9 minutes ago

Thunderstorm
Thunderstorm
74.7 °F
Feels Like 73 °F
N
7.0
Wind Variable Wind from WSW
Gusts 8.0 mph

Today
High -- | Low -- °F
--% Chance of Precip.
Yesterday
High -- | Low -- °F
Precip. -- in
Pressure 29.82 in
Visibility 4.0 miles
Clouds Few 1700 ft
Mostly Cloudy 7000 ft
Overcast 9500 ft
Heat Index 73 °F
Dew Point 72 °F
Humidity 91%
Rainfall 0.07 in
Snow Depth Not available.
6:38 AM 9:05 PM
Waning Crescent, 0% visible
METAR KBMG 230453Z AUTO 27007KT 4SM TSRA BR FEW017 BKN070 OVC095 22/20 A2985 RMK AO2 LTG DSNT ALQDS RAB38 TSB26 SLP098 P0006 T02220200 403440217
Pressure 29.82 in
Visibility 4.0 miles
Clouds Few 1700 ft
Mostly Cloudy 7000 ft
Overcast 9500 ft
Heat Index 73 °F
Dew Point 72 °F
Humidity 91%
Rainfall 0.07 in
Snow Depth Not available.
6:38 AM 9:05 PM
Waning Crescent, 0% visible
METAR KBMG 230453Z AUTO 27007KT 4SM TSRA BR FEW017 BKN070 OVC095 22/20 A2985 RMK AO2 LTG DSNT ALQDS RAB38 TSB26 SLP098 P0006 T02220200 403440217

Get Severe Weather Alerts

Thanks for signing up!

Be on the lookout for a verification email in your inbox.

You'll start receiving the daily forecast at 6 AM.

×

10-Day Weather Forecast

Almanac

Astronomy

Jul. 23, 2017 Rise Set
Actual Time
Civil Twilight
Nautical Twilight
Astronomical Twilight
Moon
Length of Visible Light
Length of Day
Tomorrow will be .
, % of the Moon is Illuminated

Today's Extremes

State Highs State Lows

Community

WunderPhotos

Category 6

Welcome to Category 6. This is the collective home for Weather Underground's featured writeups by Dr. Jeff Masters (right), Bob Henson (left), Chris Burt, and other regular contributors.

Nearby

Air Quality

  Air Quality AQ Index Pollutant
Not available.

Snow Depth

Station Depth Elevation

Earthquake Activity

City Distance Mag. Time & Date
Minimum magnitude displayed is 2.5.

Coastal Water Temperatures

Place Temperature

Stations

Nearby Weather Stations

Station Location Temp. Windchill Dew Point Humidity Wind Precip. Elev Updated Type
                   

Watches & Warnings

There are currently no watches in effect.